Nippon Maru — JNNU — position and weather

sailwx.info

Track history (hours):
 
Tides and Currents Weather Stations Pressure Air Temp Water Temp Dewpoint Dewpoint Depression Visibility Wind Speed Wind Dir Waves Ship Positions

Nippon Maru

Last reported at 2017-Nov-02 10:45 UTC. Time now 2017-Nov-19 10:41 UTC.
Position N 34°56' E 139°29'.
Warning: this ship's position is 16 days out of date.

Length 166 m; draft 6.5 m.

Type: Passenger vessel. MMSI: 431302000.

Date/timePositionNaut miles runAvg speedWind from/ knotsBaromVisibWave heightAir tempDewpointWater temp
2017-Nov-02 10:45N 34°56' E 139°29'416.5
2017-Nov-02 10:29N 34°59' E 139°33'816.8
2017-Nov-02 10:00N 35°05' E 139°40'816.7
2017-Nov-02 09:30N 35°12' E 139°46'612.1
2017-Nov-02 09:00N 35°18' E 139°44'713.2
2017-Nov-02 08:30N 35°24' E 139°43'917.0
2017-Nov-02 08:00N 35°30' E 139°51'914.0
2017-Nov-02 07:24N 35°37' E 139°46'2 0.0
2017-Oct-31 06:08N 35°39' E 139°47'0 1.2
2017-Oct-31 06:00N 35°39' E 139°46'5 9.4
2017-Oct-31 05:30N 35°34' E 139°49'612.1
2017-Oct-31 05:00N 35°29' E 139°52'713.4
2017-Oct-31 04:30N 35°24' E 139°46'611.7
2017-Oct-31 04:00N 35°19' E 139°44'612.0
2017-Oct-31 03:30N 35°13' E 139°47'815.5
2017-Oct-31 03:00N 35°05' E 139°45'815.8
2017-Oct-31 02:30N 35°00' E 139°38'917.1
2017-Oct-31 01:59N 34°55' E 139°29'22814.3
2017-Oct-30 09:59N 34°07' E 134°59'918.8
2017-Oct-30 09:30N 34°16' E 134°59'1217.6
2017-Oct-30 08:50N 34°27' E 135°03'618.6
2017-Oct-30 08:31N 34°32' E 135°08'816.5
2017-Oct-30 08:00N 34°40' E 135°11'1 2.0
2017-Oct-30 07:23N 34°41' E 135°11'0 0.0
2017-Oct-30 06:59N 34°41' E 135°11'0 0.0
2017-Oct-30 06:30N 34°41' E 135°11'2 3.5
2017-Oct-30 06:00N 34°39' E 135°11'4 8.2
2017-Oct-30 05:30N 34°35' E 135°10'4 8.5
2017-Oct-30 05:00N 34°35' E 135°05'612.9
2017-Oct-30 04:30N 34°36' E 134°57'  
2017-Oct-25 04:30N 34°07' E 134°57'1817.8
2017-Oct-25 03:29N 34°25' E 135°03'919.0
2017-Oct-25 03:00N 34°33' E 135°08'815.9
2017-Oct-25 02:30N 34°40' E 135°12'1 1.6
2017-Oct-25 02:00N 34°41' E 135°11'0 0.0
2017-Oct-25 01:30N 34°41' E 135°11'0 0.0
2017-Oct-25 01:00N 34°41' E 135°11'0 0.0
2017-Oct-25 00:30N 34°41' E 135°11'0 0.0
2017-Oct-25 00:00N 34°41' E 135°11'0 0.5
2017-Oct-24 23:30N 34°41' E 135°11'4 7.6
2017-Oct-24 23:00N 34°37' E 135°09'510.2
2017-Oct-24 22:30N 34°35' E 135°04'511.0
2017-Oct-24 22:00N 34°36' E 134°57'612.7
2017-Oct-24 21:30N 34°33' E 134°50'  
Track history (hours):
 
Tides and Currents Weather Stations Pressure Air Temp Water Temp Dewpoint Dewpoint Depression Visibility Wind Speed Wind Dir Waves Ship Positions

Nippon Maru

Last reported at 2017-Nov-02 10:45 UTC. Time now 2017-Nov-19 10:41 UTC.
Position N 34°56' E 139°29'.
Warning: this ship's position is 16 days out of date.

Length 166 m; draft 6.5 m.

Type: Passenger vessel. MMSI: 431302000.

Date/timePositionNaut miles runAvg speedWind from/ knotsBaromVisibWave heightAir tempDewpointWater temp
2017-Nov-02 10:45N 34°56' E 139°29'416.5
2017-Nov-02 10:29N 34°59' E 139°33'816.8
2017-Nov-02 10:00N 35°05' E 139°40'816.7
2017-Nov-02 09:30N 35°12' E 139°46'612.1
2017-Nov-02 09:00N 35°18' E 139°44'713.2
2017-Nov-02 08:30N 35°24' E 139°43'917.0
2017-Nov-02 08:00N 35°30' E 139°51'914.0
2017-Nov-02 07:24N 35°37' E 139°46'2 0.0
2017-Oct-31 06:08N 35°39' E 139°47'0 1.2
2017-Oct-31 06:00N 35°39' E 139°46'5 9.4
2017-Oct-31 05:30N 35°34' E 139°49'612.1
2017-Oct-31 05:00N 35°29' E 139°52'713.4
2017-Oct-31 04:30N 35°24' E 139°46'611.7
2017-Oct-31 04:00N 35°19' E 139°44'612.0
2017-Oct-31 03:30N 35°13' E 139°47'815.5
2017-Oct-31 03:00N 35°05' E 139°45'815.8
2017-Oct-31 02:30N 35°00' E 139°38'917.1
2017-Oct-31 01:59N 34°55' E 139°29'22814.3
2017-Oct-30 09:59N 34°07' E 134°59'918.8
2017-Oct-30 09:30N 34°16' E 134°59'1217.6
2017-Oct-30 08:50N 34°27' E 135°03'618.6
2017-Oct-30 08:31N 34°32' E 135°08'816.5
2017-Oct-30 08:00N 34°40' E 135°11'1 2.0
2017-Oct-30 07:23N 34°41' E 135°11'0 0.0
2017-Oct-30 06:59N 34°41' E 135°11'0 0.0
2017-Oct-30 06:30N 34°41' E 135°11'2 3.5
2017-Oct-30 06:00N 34°39' E 135°11'4 8.2
2017-Oct-30 05:30N 34°35' E 135°10'4 8.5
2017-Oct-30 05:00N 34°35' E 135°05'612.9
2017-Oct-30 04:30N 34°36' E 134°57'  
2017-Oct-25 04:30N 34°07' E 134°57'1817.8
2017-Oct-25 03:29N 34°25' E 135°03'919.0
2017-Oct-25 03:00N 34°33' E 135°08'815.9
2017-Oct-25 02:30N 34°40' E 135°12'1 1.6
2017-Oct-25 02:00N 34°41' E 135°11'0 0.0
2017-Oct-25 01:30N 34°41' E 135°11'0 0.0
2017-Oct-25 01:00N 34°41' E 135°11'0 0.0
2017-Oct-25 00:30N 34°41' E 135°11'0 0.0
2017-Oct-25 00:00N 34°41' E 135°11'0 0.5
2017-Oct-24 23:30N 34°41' E 135°11'4 7.6
2017-Oct-24 23:00N 34°37' E 135°09'510.2
2017-Oct-24 22:30N 34°35' E 135°04'511.0
2017-Oct-24 22:00N 34°36' E 134°57'612.7
2017-Oct-24 21:30N 34°33' E 134°50'  

Dump ship's entire track history